sensor_id;sensor_type;location;lat;lon;timestamp;temperature;humidity
10129;DHT22;5104;50.720;7.044;2023-06-19T00:00:44;20.20;99.90
10129;DHT22;5104;50.720;7.044;2023-06-19T00:03:11;20.20;99.90
10129;DHT22;5104;50.720;7.044;2023-06-19T00:05:38;20.20;99.90
10129;DHT22;5104;50.720;7.044;2023-06-19T00:08:05;20.20;99.90
10129;DHT22;5104;50.720;7.044;2023-06-19T00:10:32;20.20;99.90
10129;DHT22;5104;50.720;7.044;2023-06-19T00:13:00;20.20;99.90
10129;DHT22;5104;50.720;7.044;2023-06-19T00:15:28;20.20;99.90
10129;DHT22;5104;50.720;7.044;2023-06-19T00:17:55;20.10;99.90
10129;DHT22;5104;50.720;7.044;2023-06-19T00:20:24;20.10;99.90
10129;DHT22;5104;50.720;7.044;2023-06-19T00:22:51;20.00;99.90
10129;DHT22;5104;50.720;7.044;2023-06-19T00:25:18;20.00;99.90
10129;DHT22;5104;50.720;7.044;2023-06-19T00:27:46;20.00;99.90
10129;DHT22;5104;50.720;7.044;2023-06-19T00:30:14;19.90;99.90
10129;DHT22;5104;50.720;7.044;2023-06-19T00:32:41;19.90;99.90
10129;DHT22;5104;50.720;7.044;2023-06-19T00:35:13;19.90;1.00
10129;DHT22;5104;50.720;7.044;2023-06-19T00:37:41;19.90;99.90
10129;DHT22;5104;50.720;7.044;2023-06-19T00:40:12;19.80;1.00
10129;DHT22;5104;50.720;7.044;2023-06-19T00:42:40;19.80;99.90
10129;DHT22;5104;50.720;7.044;2023-06-19T00:45:08;19.80;99.90
10129;DHT22;5104;50.720;7.044;2023-06-19T00:47:37;19.80;99.90
10129;DHT22;5104;50.720;7.044;2023-06-19T00:50:05;19.80;1.00
10129;DHT22;5104;50.720;7.044;2023-06-19T00:52:33;19.80;1.00
10129;DHT22;5104;50.720;7.044;2023-06-19T00:55:00;19.90;1.00
10129;DHT22;5104;50.720;7.044;2023-06-19T00:57:29;19.90;1.00
10129;DHT22;5104;50.720;7.044;2023-06-19T00:59:57;19.90;99.90
10129;DHT22;5104;50.720;7.044;2023-06-19T01:02:24;19.90;1.00
10129;DHT22;5104;50.720;7.044;2023-06-19T01:04:52;19.80;99.90
10129;DHT22;5104;50.720;7.044;2023-06-19T01:07:37;19.80;1.00
10129;DHT22;5104;50.720;7.044;2023-06-19T01:10:09;19.70;99.90
10129;DHT22;5104;50.720;7.044;2023-06-19T01:12:40;19.70;2.40
10129;DHT22;5104;50.720;7.044;2023-06-19T01:15:13;19.70;1.00
10129;DHT22;5104;50.720;7.044;2023-06-19T01:17:41;19.80;1.00
10129;DHT22;5104;50.720;7.044;2023-06-19T01:20:10;19.80;1.00
10129;DHT22;5104;50.720;7.044;2023-06-19T01:22:38;19.70;99.90
10129;DHT22;5104;50.720;7.044;2023-06-19T01:25:06;19.70;99.90
10129;DHT22;5104;50.720;7.044;2023-06-19T01:27:33;19.70;99.90
10129;DHT22;5104;50.720;7.044;2023-06-19T01:30:02;19.70;1.00
10129;DHT22;5104;50.720;7.044;2023-06-19T01:32:34;19.70;99.90
10129;DHT22;5104;50.720;7.044;2023-06-19T01:35:05;19.70;99.90
10129;DHT22;5104;50.720;7.044;2023-06-19T01:37:34;19.80;1.00
10129;DHT22;5104;50.720;7.044;2023-06-19T01:40:05;19.80;1.00
10129;DHT22;5104;50.720;7.044;2023-06-19T01:42:36;19.70;1.00
10129;DHT22;5104;50.720;7.044;2023-06-19T01:45:05;19.80;1.00
10129;DHT22;5104;50.720;7.044;2023-06-19T01:47:32;19.70;1.00
10129;DHT22;5104;50.720;7.044;2023-06-19T01:49:59;19.70;1.00
10129;DHT22;5104;50.720;7.044;2023-06-19T01:52:26;19.80;1.00
10129;DHT22;5104;50.720;7.044;2023-06-19T01:54:53;19.80;1.00
10129;DHT22;5104;50.720;7.044;2023-06-19T01:57:21;19.80;1.00
10129;DHT22;5104;50.720;7.044;2023-06-19T01:59:48;19.90;1.00
10129;DHT22;5104;50.720;7.044;2023-06-19T02:02:15;19.90;1.00
10129;DHT22;5104;50.720;7.044;2023-06-19T02:04:42;19.90;1.00
10129;DHT22;5104;50.720;7.044;2023-06-19T02:07:09;19.90;1.00
10129;DHT22;5104;50.720;7.044;2023-06-19T02:09:37;20.00;1.00
10129;DHT22;5104;50.720;7.044;2023-06-19T02:12:05;20.00;1.00
10129;DHT22;5104;50.720;7.044;2023-06-19T02:14:33;20.00;1.00
10129;DHT22;5104;50.720;7.044;2023-06-19T02:17:00;20.00;1.00
10129;DHT22;5104;50.720;7.044;2023-06-19T02:19:27;20.00;41.50
10129;DHT22;5104;50.720;7.044;2023-06-19T02:21:53;20.00;99.90
10129;DHT22;5104;50.720;7.044;2023-06-19T02:24:20;20.00;1.00
10129;DHT22;5104;50.720;7.044;2023-06-19T02:26:47;20.00;99.90
10129;DHT22;5104;50.720;7.044;2023-06-19T02:29:14;20.00;99.90
10129;DHT22;5104;50.720;7.044;2023-06-19T02:31:43;20.00;1.00
10129;DHT22;5104;50.720;7.044;2023-06-19T02:34:10;20.00;1.00
10129;DHT22;5104;50.720;7.044;2023-06-19T02:36:37;20.10;1.00
10129;DHT22;5104;50.720;7.044;2023-06-19T02:39:04;20.00;99.90
10129;DHT22;5104;50.720;7.044;2023-06-19T02:41:31;19.90;1.00
10129;DHT22;5104;50.720;7.044;2023-06-19T02:43:58;19.90;99.90
10129;DHT22;5104;50.720;7.044;2023-06-19T02:46:25;19.80;39.90
10129;DHT22;5104;50.720;7.044;2023-06-19T02:48:54;19.80;1.00
10129;DHT22;5104;50.720;7.044;2023-06-19T02:51:21;19.70;99.90
10129;DHT22;5104;50.720;7.044;2023-06-19T02:53:48;19.70;1.00
10129;DHT22;5104;50.720;7.044;2023-06-19T02:56:15;19.60;1.00
10129;DHT22;5104;50.720;7.044;2023-06-19T02:58:42;19.40;1.00
10129;DHT22;5104;50.720;7.044;2023-06-19T03:01:08;19.40;1.00
10129;DHT22;5104;50.720;7.044;2023-06-19T03:03:35;19.30;99.90
10129;DHT22;5104;50.720;7.044;2023-06-19T03:06:05;19.30;99.90
10129;DHT22;5104;50.720;7.044;2023-06-19T03:08:33;19.30;90.80
10129;DHT22;5104;50.720;7.044;2023-06-19T03:11:00;19.20;99.90
10129;DHT22;5104;50.720;7.044;2023-06-19T03:13:29;19.10;1.00
10129;DHT22;5104;50.720;7.044;2023-06-19T03:15:56;19.10;1.00
10129;DHT22;5104;50.720;7.044;2023-06-19T03:18:23;19.10;99.90
10129;DHT22;5104;50.720;7.044;2023-06-19T03:20:50;19.10;1.00
10129;DHT22;5104;50.720;7.044;2023-06-19T03:23:18;19.10;99.90
10129;DHT22;5104;50.720;7.044;2023-06-19T03:25:45;19.10;99.90
10129;DHT22;5104;50.720;7.044;2023-06-19T03:28:12;19.10;99.90
10129;DHT22;5104;50.720;7.044;2023-06-19T03:30:39;19.10;90.80
10129;DHT22;5104;50.720;7.044;2023-06-19T03:33:06;19.20;42.80
10129;DHT22;5104;50.720;7.044;2023-06-19T03:35:33;19.20;99.90
10129;DHT22;5104;50.720;7.044;2023-06-19T03:38:00;19.20;1.00
10129;DHT22;5104;50.720;7.044;2023-06-19T03:40:29;19.30;99.90
10129;DHT22;5104;50.720;7.044;2023-06-19T03:42:56;19.30;1.00
10129;DHT22;5104;50.720;7.044;2023-06-19T03:45:23;19.30;1.00
10129;DHT22;5104;50.720;7.044;2023-06-19T03:47:49;19.40;1.00
10129;DHT22;5104;50.720;7.044;2023-06-19T03:50:17;19.40;1.00
10129;DHT22;5104;50.720;7.044;2023-06-19T03:52:44;19.40;1.00
10129;DHT22;5104;50.720;7.044;2023-06-19T03:55:11;19.40;1.00
10129;DHT22;5104;50.720;7.044;2023-06-19T03:57:39;19.30;1.00
10129;DHT22;5104;50.720;7.044;2023-06-19T04:00:07;19.30;1.00
10129;DHT22;5104;50.720;7.044;2023-06-19T04:02:36;19.40;1.00
10129;DHT22;5104;50.720;7.044;2023-06-19T04:05:04;19.50;1.00
10129;DHT22;5104;50.720;7.044;2023-06-19T04:07:30;19.50;99.90
10129;DHT22;5104;50.720;7.044;2023-06-19T04:09:58;19.60;99.90
10129;DHT22;5104;50.720;7.044;2023-06-19T04:12:25;19.60;1.00
10129;DHT22;5104;50.720;7.044;2023-06-19T04:14:54;19.70;10.80
10129;DHT22;5104;50.720;7.044;2023-06-19T04:17:21;19.80;60.50
10129;DHT22;5104;50.720;7.044;2023-06-19T04:19:48;19.80;99.90
10129;DHT22;5104;50.720;7.044;2023-06-19T04:22:15;19.90;99.90
10129;DHT22;5104;50.720;7.044;2023-06-19T04:24:42;19.90;1.00
10129;DHT22;5104;50.720;7.044;2023-06-19T04:27:09;20.00;99.90
10129;DHT22;5104;50.720;7.044;2023-06-19T04:29:39;20.20;1.00
10129;DHT22;5104;50.720;7.044;2023-06-19T04:32:07;20.20;43.90
10129;DHT22;5104;50.720;7.044;2023-06-19T04:34:37;20.30;1.00
10129;DHT22;5104;50.720;7.044;2023-06-19T04:37:05;20.40;1.00
10129;DHT22;5104;50.720;7.044;2023-06-19T04:39:32;20.50;99.90
10129;DHT22;5104;50.720;7.044;2023-06-19T04:41:59;20.60;99.90
10129;DHT22;5104;50.720;7.044;2023-06-19T04:44:26;20.70;32.10
10129;DHT22;5104;50.720;7.044;2023-06-19T04:46:55;20.80;1.00
10129;DHT22;5104;50.720;7.044;2023-06-19T04:49:28;20.90;1.00
10129;DHT22;5104;50.720;7.044;2023-06-19T04:51:56;21.00;1.00
10129;DHT22;5104;50.720;7.044;2023-06-19T04:54:24;21.10;1.00
10129;DHT22;5104;50.720;7.044;2023-06-19T04:56:51;21.10;1.00
10129;DHT22;5104;50.720;7.044;2023-06-19T04:59:18;21.20;1.00
10129;DHT22;5104;50.720;7.044;2023-06-19T05:01:45;21.20;1.00
10129;DHT22;5104;50.720;7.044;2023-06-19T05:04:12;21.20;1.00
10129;DHT22;5104;50.720;7.044;2023-06-19T05:06:41;21.30;1.00
10129;DHT22;5104;50.720;7.044;2023-06-19T05:09:08;21.30;1.00
10129;DHT22;5104;50.720;7.044;2023-06-19T05:11:36;21.30;1.00
10129;DHT22;5104;50.720;7.044;2023-06-19T05:14:03;21.40;1.00
10129;DHT22;5104;50.720;7.044;2023-06-19T05:16:30;21.40;61.30
10129;DHT22;5104;50.720;7.044;2023-06-19T05:18:57;21.40;1.00
10129;DHT22;5104;50.720;7.044;2023-06-19T05:21:24;21.50;1.00
10129;DHT22;5104;50.720;7.044;2023-06-19T05:23:53;21.70;1.00
10129;DHT22;5104;50.720;7.044;2023-06-19T05:26:20;21.90;1.00
10129;DHT22;5104;50.720;7.044;2023-06-19T05:28:49;22.10;99.90
10129;DHT22;5104;50.720;7.044;2023-06-19T05:31:16;22.10;1.00
10129;DHT22;5104;50.720;7.044;2023-06-19T05:33:43;22.10;1.00
10129;DHT22;5104;50.720;7.044;2023-06-19T05:36:11;22.10;1.00
10129;DHT22;5104;50.720;7.044;2023-06-19T05:38:38;22.10;1.00
10129;DHT22;5104;50.720;7.044;2023-06-19T05:41:06;22.30;1.00
10129;DHT22;5104;50.720;7.044;2023-06-19T05:43:33;22.20;99.90
10129;DHT22;5104;50.720;7.044;2023-06-19T05:46:00;22.10;1.00
10129;DHT22;5104;50.720;7.044;2023-06-19T05:48:28;22.20;1.00
10129;DHT22;5104;50.720;7.044;2023-06-19T05:50:54;22.30;1.00
10129;DHT22;5104;50.720;7.044;2023-06-19T05:53:22;22.50;1.00
10129;DHT22;5104;50.720;7.044;2023-06-19T05:55:49;22.50;99.90
10129;DHT22;5104;50.720;7.044;2023-06-19T05:58:17;22.60;99.90
10129;DHT22;5104;50.720;7.044;2023-06-19T06:00:45;22.80;99.90
10129;DHT22;5104;50.720;7.044;2023-06-19T06:03:12;23.00;99.90
10129;DHT22;5104;50.720;7.044;2023-06-19T06:05:40;23.10;99.90
10129;DHT22;5104;50.720;7.044;2023-06-19T06:08:07;23.40;1.00
10129;DHT22;5104;50.720;7.044;2023-06-19T06:10:34;23.70;1.00
10129;DHT22;5104;50.720;7.044;2023-06-19T06:13:01;23.90;1.00
10129;DHT22;5104;50.720;7.044;2023-06-19T06:15:29;24.10;1.00
10129;DHT22;5104;50.720;7.044;2023-06-19T06:17:56;24.30;1.00
10129;DHT22;5104;50.720;7.044;2023-06-19T06:20:23;24.30;1.00
10129;DHT22;5104;50.720;7.044;2023-06-19T06:22:50;24.10;1.00
10129;DHT22;5104;50.720;7.044;2023-06-19T06:25:17;24.00;99.90
10129;DHT22;5104;50.720;7.044;2023-06-19T06:27:44;23.90;99.90
10129;DHT22;5104;50.720;7.044;2023-06-19T06:30:12;23.90;99.90
10129;DHT22;5104;50.720;7.044;2023-06-19T06:32:40;23.90;1.00
10129;DHT22;5104;50.720;7.044;2023-06-19T06:35:07;23.90;99.90
10129;DHT22;5104;50.720;7.044;2023-06-19T06:37:34;23.80;1.00
10129;DHT22;5104;50.720;7.044;2023-06-19T06:40:01;23.90;1.00
10129;DHT22;5104;50.720;7.044;2023-06-19T06:42:30;23.90;1.00
10129;DHT22;5104;50.720;7.044;2023-06-19T06:44:57;23.80;99.90
10129;DHT22;5104;50.720;7.044;2023-06-19T06:47:24;23.80;99.90
10129;DHT22;5104;50.720;7.044;2023-06-19T06:49:52;23.90;99.90
10129;DHT22;5104;50.720;7.044;2023-06-19T06:52:19;23.90;1.00
10129;DHT22;5104;50.720;7.044;2023-06-19T06:54:46;23.90;99.90
10129;DHT22;5104;50.720;7.044;2023-06-19T06:57:13;23.90;1.00
10129;DHT22;5104;50.720;7.044;2023-06-19T06:59:40;23.90;1.00
10129;DHT22;5104;50.720;7.044;2023-06-19T07:02:07;23.60;1.00
10129;DHT22;5104;50.720;7.044;2023-06-19T07:04:34;23.70;1.00
10129;DHT22;5104;50.720;7.044;2023-06-19T07:07:02;23.90;1.00
10129;DHT22;5104;50.720;7.044;2023-06-19T07:09:31;24.10;1.00
10129;DHT22;5104;50.720;7.044;2023-06-19T07:11:58;24.40;99.90
10129;DHT22;5104;50.720;7.044;2023-06-19T07:14:25;24.60;99.90
10129;DHT22;5104;50.720;7.044;2023-06-19T07:16:52;24.90;99.90
10129;DHT22;5104;50.720;7.044;2023-06-19T07:19:19;25.20;99.90
10129;DHT22;5104;50.720;7.044;2023-06-19T07:21:48;25.60;82.80
10129;DHT22;5104;50.720;7.044;2023-06-19T07:24:18;25.80;1.00
10129;DHT22;5104;50.720;7.044;2023-06-19T07:26:46;26.00;1.00
10129;DHT22;5104;50.720;7.044;2023-06-19T07:29:12;26.10;1.00
10129;DHT22;5104;50.720;7.044;2023-06-19T07:31:39;26.40;1.00
10129;DHT22;5104;50.720;7.044;2023-06-19T07:34:08;26.40;1.00
10129;DHT22;5104;50.720;7.044;2023-06-19T07:36:35;26.50;1.00
10129;DHT22;5104;50.720;7.044;2023-06-19T07:39:02;26.10;1.00
10129;DHT22;5104;50.720;7.044;2023-06-19T07:41:31;26.20;1.00
10129;DHT22;5104;50.720;7.044;2023-06-19T07:43:58;26.20;1.00
10129;DHT22;5104;50.720;7.044;2023-06-19T07:46:25;26.10;1.00
10129;DHT22;5104;50.720;7.044;2023-06-19T07:48:51;26.20;1.00
10129;DHT22;5104;50.720;7.044;2023-06-19T07:51:18;26.40;1.00
10129;DHT22;5104;50.720;7.044;2023-06-19T07:53:45;26.40;1.00
10129;DHT22;5104;50.720;7.044;2023-06-19T07:56:12;26.60;1.00
10129;DHT22;5104;50.720;7.044;2023-06-19T07:58:41;26.60;1.00
10129;DHT22;5104;50.720;7.044;2023-06-19T08:01:08;26.70;1.00
10129;DHT22;5104;50.720;7.044;2023-06-19T08:03:35;26.80;1.00
10129;DHT22;5104;50.720;7.044;2023-06-19T08:06:03;26.60;1.00
10129;DHT22;5104;50.720;7.044;2023-06-19T08:08:30;26.30;1.00
10129;DHT22;5104;50.720;7.044;2023-06-19T08:10:57;26.00;1.00
10129;DHT22;5104;50.720;7.044;2023-06-19T08:13:24;25.80;1.00
10129;DHT22;5104;50.720;7.044;2023-06-19T08:15:53;25.70;1.00
10129;DHT22;5104;50.720;7.044;2023-06-19T08:18:20;25.80;1.00
10129;DHT22;5104;50.720;7.044;2023-06-19T08:20:47;25.70;1.00
10129;DHT22;5104;50.720;7.044;2023-06-19T08:23:15;25.90;1.00
10129;DHT22;5104;50.720;7.044;2023-06-19T08:25:42;25.80;1.00
10129;DHT22;5104;50.720;7.044;2023-06-19T08:28:09;25.60;1.00
10129;DHT22;5104;50.720;7.044;2023-06-19T08:30:38;25.60;1.00
10129;DHT22;5104;50.720;7.044;2023-06-19T08:33:07;25.50;1.00
10129;DHT22;5104;50.720;7.044;2023-06-19T08:35:35;25.40;1.00
10129;DHT22;5104;50.720;7.044;2023-06-19T08:38:02;25.50;1.00
10129;DHT22;5104;50.720;7.044;2023-06-19T08:40:29;25.60;1.00
10129;DHT22;5104;50.720;7.044;2023-06-19T08:42:56;25.70;1.00
10129;DHT22;5104;50.720;7.044;2023-06-19T08:45:23;25.70;1.00
10129;DHT22;5104;50.720;7.044;2023-06-19T08:47:58;25.80;1.00
10129;DHT22;5104;50.720;7.044;2023-06-19T08:50:26;25.70;1.00
10129;DHT22;5104;50.720;7.044;2023-06-19T08:52:55;25.70;1.00
10129;DHT22;5104;50.720;7.044;2023-06-19T08:55:22;25.80;1.00
10129;DHT22;5104;50.720;7.044;2023-06-19T08:57:50;25.90;1.00
10129;DHT22;5104;50.720;7.044;2023-06-19T09:00:24;26.10;99.90
10129;DHT22;5104;50.720;7.044;2023-06-19T09:02:52;26.20;99.90
10129;DHT22;5104;50.720;7.044;2023-06-19T09:05:19;26.40;99.90
10129;DHT22;5104;50.720;7.044;2023-06-19T09:07:56;26.30;99.90
10129;DHT22;5104;50.720;7.044;2023-06-19T09:10:24;26.50;99.90
10129;DHT22;5104;50.720;7.044;2023-06-19T09:12:58;26.50;99.90
10129;DHT22;5104;50.720;7.044;2023-06-19T09:15:28;26.60;99.90
10129;DHT22;5104;50.720;7.044;2023-06-19T09:18:06;26.60;99.90
10129;DHT22;5104;50.720;7.044;2023-06-19T09:20:34;26.80;99.90
10129;DHT22;5104;50.720;7.044;2023-06-19T09:23:05;26.70;99.90
10129;DHT22;5104;50.720;7.044;2023-06-19T09:25:42;26.60;99.90
10129;DHT22;5104;50.720;7.044;2023-06-19T09:28:17;26.70;99.90
10129;DHT22;5104;50.720;7.044;2023-06-19T09:30:55;26.80;99.90
10129;DHT22;5104;50.720;7.044;2023-06-19T09:33:23;27.00;99.90
10129;DHT22;5104;50.720;7.044;2023-06-19T09:35:50;26.60;99.90
10129;DHT22;5104;50.720;7.044;2023-06-19T09:38:21;26.40;99.90
10129;DHT22;5104;50.720;7.044;2023-06-19T09:40:51;26.60;99.90
10129;DHT22;5104;50.720;7.044;2023-06-19T09:43:22;26.50;99.90
10129;DHT22;5104;50.720;7.044;2023-06-19T09:45:50;26.50;99.90
10129;DHT22;5104;50.720;7.044;2023-06-19T09:48:27;26.60;99.90
10129;DHT22;5104;50.720;7.044;2023-06-19T09:50:58;26.80;99.90
10129;DHT22;5104;50.720;7.044;2023-06-19T09:53:27;26.80;99.90
10129;DHT22;5104;50.720;7.044;2023-06-19T09:55:55;27.00;99.90
10129;DHT22;5104;50.720;7.044;2023-06-19T09:58:23;26.80;99.90
10129;DHT22;5104;50.720;7.044;2023-06-19T10:00:50;26.80;99.90
10129;DHT22;5104;50.720;7.044;2023-06-19T10:03:20;26.60;99.90
10129;DHT22;5104;50.720;7.044;2023-06-19T10:05:57;26.50;99.90
10129;DHT22;5104;50.720;7.044;2023-06-19T10:08:30;26.60;99.90
10129;DHT22;5104;50.720;7.044;2023-06-19T10:10:58;26.60;99.90
10129;DHT22;5104;50.720;7.044;2023-06-19T10:13:32;26.70;99.90
10129;DHT22;5104;50.720;7.044;2023-06-19T10:16:00;26.90;99.90
10129;DHT22;5104;50.720;7.044;2023-06-19T10:18:27;26.70;99.90
10129;DHT22;5104;50.720;7.044;2023-06-19T10:20:55;26.60;99.90
10129;DHT22;5104;50.720;7.044;2023-06-19T10:23:23;26.80;99.90
10129;DHT22;5104;50.720;7.044;2023-06-19T10:25:57;26.80;99.90
10129;DHT22;5104;50.720;7.044;2023-06-19T10:28:26;27.10;99.90
10129;DHT22;5104;50.720;7.044;2023-06-19T10:30:54;27.10;99.90
10129;DHT22;5104;50.720;7.044;2023-06-19T10:33:22;27.20;99.90
10129;DHT22;5104;50.720;7.044;2023-06-19T10:35:50;27.30;99.90
10129;DHT22;5104;50.720;7.044;2023-06-19T10:38:17;27.20;99.90
10129;DHT22;5104;50.720;7.044;2023-06-19T10:40:44;27.20;99.90
10129;DHT22;5104;50.720;7.044;2023-06-19T10:43:19;27.30;99.90
10129;DHT22;5104;50.720;7.044;2023-06-19T10:45:47;27.30;99.90
10129;DHT22;5104;50.720;7.044;2023-06-19T10:48:19;27.60;99.90
10129;DHT22;5104;50.720;7.044;2023-06-19T10:50:47;27.80;99.90
10129;DHT22;5104;50.720;7.044;2023-06-19T10:53:23;28.10;99.90
10129;DHT22;5104;50.720;7.044;2023-06-19T10:55:55;28.20;99.90
10129;DHT22;5104;50.720;7.044;2023-06-19T10:58:24;28.20;99.90
10129;DHT22;5104;50.720;7.044;2023-06-19T11:00:51;27.90;99.90
10129;DHT22;5104;50.720;7.044;2023-06-19T11:03:19;28.00;99.90
10129;DHT22;5104;50.720;7.044;2023-06-19T11:05:46;28.30;99.90
10129;DHT22;5104;50.720;7.044;2023-06-19T11:08:17;28.50;99.90
10129;DHT22;5104;50.720;7.044;2023-06-19T11:10:46;28.60;99.90
10129;DHT22;5104;50.720;7.044;2023-06-19T11:13:14;28.70;99.90
10129;DHT22;5104;50.720;7.044;2023-06-19T11:15:42;28.70;99.90
10129;DHT22;5104;50.720;7.044;2023-06-19T11:18:15;28.50;99.90
10129;DHT22;5104;50.720;7.044;2023-06-19T11:20:45;28.80;99.90
10129;DHT22;5104;50.720;7.044;2023-06-19T11:23:13;29.10;99.90
10129;DHT22;5104;50.720;7.044;2023-06-19T11:25:41;29.20;99.90
10129;DHT22;5104;50.720;7.044;2023-06-19T11:28:12;29.50;99.90
10129;DHT22;5104;50.720;7.044;2023-06-19T11:30:41;29.60;99.90
10129;DHT22;5104;50.720;7.044;2023-06-19T11:33:16;29.60;99.90
10129;DHT22;5104;50.720;7.044;2023-06-19T11:35:48;29.60;99.90
10129;DHT22;5104;50.720;7.044;2023-06-19T11:38:19;29.60;99.90
10129;DHT22;5104;50.720;7.044;2023-06-19T11:40:47;29.30;99.90
10129;DHT22;5104;50.720;7.044;2023-06-19T11:43:23;29.20;99.90
10129;DHT22;5104;50.720;7.044;2023-06-19T11:45:52;29.60;99.90
10129;DHT22;5104;50.720;7.044;2023-06-19T11:48:23;29.50;99.90
10129;DHT22;5104;50.720;7.044;2023-06-19T11:50:50;29.70;99.90
10129;DHT22;5104;50.720;7.044;2023-06-19T11:53:18;29.60;95.40
10129;DHT22;5104;50.720;7.044;2023-06-19T11:55:45;29.00;99.20
10129;DHT22;5104;50.720;7.044;2023-06-19T11:58:13;29.20;99.90
10129;DHT22;5104;50.720;7.044;2023-06-19T12:00:41;29.30;99.90
10129;DHT22;5104;50.720;7.044;2023-06-19T12:03:10;29.40;99.40
10129;DHT22;5104;50.720;7.044;2023-06-19T12:05:37;29.40;97.80
10129;DHT22;5104;50.720;7.044;2023-06-19T12:08:05;29.20;99.90
10129;DHT22;5104;50.720;7.044;2023-06-19T12:10:32;29.30;99.90
10129;DHT22;5104;50.720;7.044;2023-06-19T12:12:59;29.50;95.10
10129;DHT22;5104;50.720;7.044;2023-06-19T12:15:26;29.60;95.70
10129;DHT22;5104;50.720;7.044;2023-06-19T12:17:53;29.60;91.20
10129;DHT22;5104;50.720;7.044;2023-06-19T12:20:24;29.50;90.20
10129;DHT22;5104;50.720;7.044;2023-06-19T12:22:51;29.90;83.30
10129;DHT22;5104;50.720;7.044;2023-06-19T12:25:19;29.90;80.70
10129;DHT22;5104;50.720;7.044;2023-06-19T12:27:49;30.10;86.20
10129;DHT22;5104;50.720;7.044;2023-06-19T12:30:16;30.40;78.80
10129;DHT22;5104;50.720;7.044;2023-06-19T12:32:43;30.40;69.00
10129;DHT22;5104;50.720;7.044;2023-06-19T12:35:15;30.20;76.10
10129;DHT22;5104;50.720;7.044;2023-06-19T12:37:45;29.90;67.80
10129;DHT22;5104;50.720;7.044;2023-06-19T12:40:12;30.00;78.10
10129;DHT22;5104;50.720;7.044;2023-06-19T12:42:39;30.40;69.70
10129;DHT22;5104;50.720;7.044;2023-06-19T12:45:07;30.70;54.90
10129;DHT22;5104;50.720;7.044;2023-06-19T12:47:34;30.80;47.40
10129;DHT22;5104;50.720;7.044;2023-06-19T12:50:01;30.50;48.40
10129;DHT22;5104;50.720;7.044;2023-06-19T12:52:28;30.60;45.00
10129;DHT22;5104;50.720;7.044;2023-06-19T12:54:57;31.20;41.80
10129;DHT22;5104;50.720;7.044;2023-06-19T12:57:26;31.60;32.30
10129;DHT22;5104;50.720;7.044;2023-06-19T12:59:53;31.80;24.10
10129;DHT22;5104;50.720;7.044;2023-06-19T13:02:20;31.40;26.40
10129;DHT22;5104;50.720;7.044;2023-06-19T13:04:47;31.10;29.20
10129;DHT22;5104;50.720;7.044;2023-06-19T13:07:14;31.30;24.50
10129;DHT22;5104;50.720;7.044;2023-06-19T13:09:41;31.30;21.10
10129;DHT22;5104;50.720;7.044;2023-06-19T13:12:13;31.30;23.90
10129;DHT22;5104;50.720;7.044;2023-06-19T13:14:40;31.10;22.20
10129;DHT22;5104;50.720;7.044;2023-06-19T13:17:07;31.30;23.50
10129;DHT22;5104;50.720;7.044;2023-06-19T13:19:34;31.50;18.30
10129;DHT22;5104;50.720;7.044;2023-06-19T13:22:01;32.00;13.60
10129;DHT22;5104;50.720;7.044;2023-06-19T13:24:28;32.30;8.10
10129;DHT22;5104;50.720;7.044;2023-06-19T13:26:55;32.30;5.10
10129;DHT22;5104;50.720;7.044;2023-06-19T13:29:24;32.30;2.20
10129;DHT22;5104;50.720;7.044;2023-06-19T13:31:51;32.30;1.00
10129;DHT22;5104;50.720;7.044;2023-06-19T13:34:18;32.30;1.00
10129;DHT22;5104;50.720;7.044;2023-06-19T13:36:47;32.50;1.00
10129;DHT22;5104;50.720;7.044;2023-06-19T13:39:14;32.60;1.00
10129;DHT22;5104;50.720;7.044;2023-06-19T13:41:44;32.70;1.00
10129;DHT22;5104;50.720;7.044;2023-06-19T13:44:11;32.70;1.00
10129;DHT22;5104;50.720;7.044;2023-06-19T13:46:40;32.50;6.00
10129;DHT22;5104;50.720;7.044;2023-06-19T13:49:08;32.40;1.00
10129;DHT22;5104;50.720;7.044;2023-06-19T13:51:37;32.10;1.00
10129;DHT22;5104;50.720;7.044;2023-06-19T13:54:04;32.10;1.00
10129;DHT22;5104;50.720;7.044;2023-06-19T13:56:31;32.30;1.00
10129;DHT22;5104;50.720;7.044;2023-06-19T13:58:58;32.40;1.00
10129;DHT22;5104;50.720;7.044;2023-06-19T14:01:25;32.40;1.00
10129;DHT22;5104;50.720;7.044;2023-06-19T14:03:53;32.20;1.00
10129;DHT22;5104;50.720;7.044;2023-06-19T14:06:22;32.30;1.00
10129;DHT22;5104;50.720;7.044;2023-06-19T14:08:50;32.00;1.00
10129;DHT22;5104;50.720;7.044;2023-06-19T14:11:17;32.00;1.00
10129;DHT22;5104;50.720;7.044;2023-06-19T14:13:44;32.10;1.00
10129;DHT22;5104;50.720;7.044;2023-06-19T14:16:11;32.20;1.00
10129;DHT22;5104;50.720;7.044;2023-06-19T14:18:38;32.60;1.00
10129;DHT22;5104;50.720;7.044;2023-06-19T14:21:07;32.70;1.00
10129;DHT22;5104;50.720;7.044;2023-06-19T14:23:33;33.10;1.00
10129;DHT22;5104;50.720;7.044;2023-06-19T14:26:05;33.20;1.00
10129;DHT22;5104;50.720;7.044;2023-06-19T14:28:32;33.70;1.00
10129;DHT22;5104;50.720;7.044;2023-06-19T14:30:59;34.20;1.00
10129;DHT22;5104;50.720;7.044;2023-06-19T14:33:26;33.70;1.00
10129;DHT22;5104;50.720;7.044;2023-06-19T14:35:53;34.50;1.00
10129;DHT22;5104;50.720;7.044;2023-06-19T14:38:21;35.10;1.00
10129;DHT22;5104;50.720;7.044;2023-06-19T14:40:50;35.50;1.00
10129;DHT22;5104;50.720;7.044;2023-06-19T14:43:19;35.10;1.00
10129;DHT22;5104;50.720;7.044;2023-06-19T14:45:46;34.60;1.00
10129;DHT22;5104;50.720;7.044;2023-06-19T14:48:13;34.30;1.00
10129;DHT22;5104;50.720;7.044;2023-06-19T14:50:40;34.40;1.00
10129;DHT22;5104;50.720;7.044;2023-06-19T14:53:07;34.80;1.00
10129;DHT22;5104;50.720;7.044;2023-06-19T14:55:39;35.10;1.00
10129;DHT22;5104;50.720;7.044;2023-06-19T14:58:11;35.60;1.00
10129;DHT22;5104;50.720;7.044;2023-06-19T15:00:38;34.90;1.00
10129;DHT22;5104;50.720;7.044;2023-06-19T15:03:06;34.50;1.00
10129;DHT22;5104;50.720;7.044;2023-06-19T15:05:33;35.10;1.00
10129;DHT22;5104;50.720;7.044;2023-06-19T15:08:00;34.20;1.00
10129;DHT22;5104;50.720;7.044;2023-06-19T15:10:29;35.00;1.00
10129;DHT22;5104;50.720;7.044;2023-06-19T15:13:01;34.30;1.00
10129;DHT22;5104;50.720;7.044;2023-06-19T15:15:28;34.00;1.00
10129;DHT22;5104;50.720;7.044;2023-06-19T15:17:55;34.00;1.00
10129;DHT22;5104;50.720;7.044;2023-06-19T15:20:23;34.40;1.00
10129;DHT22;5104;50.720;7.044;2023-06-19T15:22:50;34.40;1.00
10129;DHT22;5104;50.720;7.044;2023-06-19T15:25:17;34.30;1.00
10129;DHT22;5104;50.720;7.044;2023-06-19T15:27:44;34.30;1.00
10129;DHT22;5104;50.720;7.044;2023-06-19T15:30:13;34.20;1.00
10129;DHT22;5104;50.720;7.044;2023-06-19T15:32:40;33.80;1.00
10129;DHT22;5104;50.720;7.044;2023-06-19T15:35:07;33.60;1.00
10129;DHT22;5104;50.720;7.044;2023-06-19T15:37:34;33.20;1.00
10129;DHT22;5104;50.720;7.044;2023-06-19T15:40:01;33.10;1.00
10129;DHT22;5104;50.720;7.044;2023-06-19T15:42:28;33.70;1.00
10129;DHT22;5104;50.720;7.044;2023-06-19T15:44:55;33.90;1.00
10129;DHT22;5104;50.720;7.044;2023-06-19T15:47:23;34.30;1.00
10129;DHT22;5104;50.720;7.044;2023-06-19T15:49:50;34.20;1.00
10129;DHT22;5104;50.720;7.044;2023-06-19T15:52:17;34.00;1.00
10129;DHT22;5104;50.720;7.044;2023-06-19T15:54:44;33.50;1.00
10129;DHT22;5104;50.720;7.044;2023-06-19T15:57:11;33.10;1.00
10129;DHT22;5104;50.720;7.044;2023-06-19T15:59:39;32.50;1.00